<?xml version="1.0" encoding="UTF-8" standalone="no" ?>
<gpx xmlns="http://www.topografix.com/GPX/1/1" xmlns:xsi="http://www.w3.org/2001/XMLSchema-instance" xsi:schemaLocation="http://www.topografix.com/GPX/1/1 http://www.topografix.com/GPX/1/1/gpx.xsd" version="1.1" creator="VisuGPX - https://www.visugpx.com">
  <metadata>
    <name>La Lechere</name>
  </metadata>
  <trk>
    <name><![CDATA[La Léchère]]></name>
    <extensions>
      <line xmlns="http://www.topografix.com/GPX/gpx_style/0/2">
        <color>0000FF</color>
        <width>4</width>
      </line>
    </extensions>
    <trkseg>
      <trkpt lat="45.51193" lon="6.49046">
        <ele>512</ele>
        <time>2022-03-26T10:07:53+01:00</time>
      </trkpt>
      <trkpt lat="45.5117" lon="6.49061">
        <ele>512</ele>
        <time>2022-03-26T10:08:00+01:00</time>
      </trkpt>
      <trkpt lat="45.51163" lon="6.49093">
        <ele>502</ele>
        <time>2022-03-26T10:08:19+01:00</time>
      </trkpt>
      <trkpt lat="45.5115" lon="6.49122">
        <ele>495</ele>
        <time>2022-03-26T10:08:43+01:00</time>
      </trkpt>
      <trkpt lat="45.5113" lon="6.49138">
        <ele>502</ele>
        <time>2022-03-26T10:09:06+01:00</time>
      </trkpt>
      <trkpt lat="45.51107" lon="6.49141">
        <ele>502</ele>
        <time>2022-03-26T10:09:23+01:00</time>
      </trkpt>
      <trkpt lat="45.51088" lon="6.49161">
        <ele>502</ele>
        <time>2022-03-26T10:10:03+01:00</time>
      </trkpt>
      <trkpt lat="45.51065" lon="6.49174">
        <ele>502</ele>
        <time>2022-03-26T10:10:32+01:00</time>
      </trkpt>
      <trkpt lat="45.51044" lon="6.49187">
        <ele>502</ele>
        <time>2022-03-26T10:10:54+01:00</time>
      </trkpt>
      <trkpt lat="45.51021" lon="6.49197">
        <ele>655</ele>
        <time>2022-03-26T10:11:18+01:00</time>
      </trkpt>
      <trkpt lat="45.50999" lon="6.49208">
        <ele>502</ele>
        <time>2022-03-26T10:11:39+01:00</time>
      </trkpt>
      <trkpt lat="45.50976" lon="6.49219">
        <ele>502</ele>
        <time>2022-03-26T10:12:03+01:00</time>
      </trkpt>
      <trkpt lat="45.50954" lon="6.49233">
        <ele>511</ele>
        <time>2022-03-26T10:12:33+01:00</time>
      </trkpt>
      <trkpt lat="45.50931" lon="6.49244">
        <ele>511</ele>
        <time>2022-03-26T10:12:55+01:00</time>
      </trkpt>
      <trkpt lat="45.5091" lon="6.49257">
        <ele>512</ele>
        <time>2022-03-26T10:13:18+01:00</time>
      </trkpt>
      <trkpt lat="45.50887" lon="6.49271">
        <ele>515</ele>
        <time>2022-03-26T10:13:39+01:00</time>
      </trkpt>
      <trkpt lat="45.50865" lon="6.49287">
        <ele>515</ele>
        <time>2022-03-26T10:14:02+01:00</time>
      </trkpt>
      <trkpt lat="45.50843" lon="6.49299">
        <ele>515</ele>
        <time>2022-03-26T10:14:29+01:00</time>
      </trkpt>
      <trkpt lat="45.50821" lon="6.49307">
        <ele>515</ele>
        <time>2022-03-26T10:14:51+01:00</time>
      </trkpt>
      <trkpt lat="45.50798" lon="6.49314">
        <ele>518</ele>
        <time>2022-03-26T10:15:15+01:00</time>
      </trkpt>
      <trkpt lat="45.50776" lon="6.49323">
        <ele>518</ele>
        <time>2022-03-26T10:15:34+01:00</time>
      </trkpt>
      <trkpt lat="45.50752" lon="6.49331">
        <ele>519</ele>
        <time>2022-03-26T10:16:14+01:00</time>
      </trkpt>
      <trkpt lat="45.50729" lon="6.49339">
        <ele>516</ele>
        <time>2022-03-26T10:16:32+01:00</time>
      </trkpt>
      <trkpt lat="45.50705" lon="6.4934">
        <ele>516</ele>
        <time>2022-03-26T10:16:54+01:00</time>
      </trkpt>
      <trkpt lat="45.50682" lon="6.49342">
        <ele>519</ele>
        <time>2022-03-26T10:17:16+01:00</time>
      </trkpt>
      <trkpt lat="45.50658" lon="6.4934">
        <ele>520</ele>
        <time>2022-03-26T10:17:41+01:00</time>
      </trkpt>
      <trkpt lat="45.50635" lon="6.49328">
        <ele>523</ele>
        <time>2022-03-26T10:18:15+01:00</time>
      </trkpt>
      <trkpt lat="45.50611" lon="6.49323">
        <ele>470</ele>
        <time>2022-03-26T10:18:45+01:00</time>
      </trkpt>
      <trkpt lat="45.50587" lon="6.49319">
        <ele>525</ele>
        <time>2022-03-26T10:19:58+01:00</time>
      </trkpt>
      <trkpt lat="45.50564" lon="6.49312">
        <ele>470</ele>
        <time>2022-03-26T10:20:35+01:00</time>
      </trkpt>
      <trkpt lat="45.50541" lon="6.493">
        <ele>535</ele>
        <time>2022-03-26T10:20:56+01:00</time>
      </trkpt>
      <trkpt lat="45.50517" lon="6.49287">
        <ele>532</ele>
        <time>2022-03-26T10:21:18+01:00</time>
      </trkpt>
      <trkpt lat="45.50496" lon="6.49271">
        <ele>527</ele>
        <time>2022-03-26T10:21:41+01:00</time>
      </trkpt>
      <trkpt lat="45.50475" lon="6.49254">
        <ele>537</ele>
        <time>2022-03-26T10:22:02+01:00</time>
      </trkpt>
      <trkpt lat="45.50455" lon="6.49236">
        <ele>535</ele>
        <time>2022-03-26T10:22:22+01:00</time>
      </trkpt>
      <trkpt lat="45.50437" lon="6.49215">
        <ele>566</ele>
        <time>2022-03-26T10:22:48+01:00</time>
      </trkpt>
      <trkpt lat="45.50421" lon="6.49188">
        <ele>534</ele>
        <time>2022-03-26T10:23:12+01:00</time>
      </trkpt>
      <trkpt lat="45.50406" lon="6.49161">
        <ele>537</ele>
        <time>2022-03-26T10:23:37+01:00</time>
      </trkpt>
      <trkpt lat="45.50392" lon="6.49136">
        <ele>541</ele>
        <time>2022-03-26T10:25:31+01:00</time>
      </trkpt>
      <trkpt lat="45.5037" lon="6.4913">
        <ele>545</ele>
        <time>2022-03-26T10:25:52+01:00</time>
      </trkpt>
      <trkpt lat="45.50348" lon="6.49118">
        <ele>541</ele>
        <time>2022-03-26T10:26:21+01:00</time>
      </trkpt>
      <trkpt lat="45.50329" lon="6.49099">
        <ele>549</ele>
        <time>2022-03-26T10:27:49+01:00</time>
      </trkpt>
      <trkpt lat="45.50316" lon="6.49071">
        <ele>549</ele>
        <time>2022-03-26T10:28:30+01:00</time>
      </trkpt>
      <trkpt lat="45.50295" lon="6.49054">
        <ele>549</ele>
        <time>2022-03-26T10:29:36+01:00</time>
      </trkpt>
      <trkpt lat="45.50276" lon="6.49034">
        <ele>549</ele>
        <time>2022-03-26T10:30:04+01:00</time>
      </trkpt>
      <trkpt lat="45.5026" lon="6.49011">
        <ele>549</ele>
        <time>2022-03-26T10:30:32+01:00</time>
      </trkpt>
      <trkpt lat="45.5024" lon="6.48993">
        <ele>539</ele>
        <time>2022-03-26T10:31:04+01:00</time>
      </trkpt>
      <trkpt lat="45.5022" lon="6.48973">
        <ele>542</ele>
        <time>2022-03-26T10:31:27+01:00</time>
      </trkpt>
      <trkpt lat="45.50203" lon="6.48951">
        <ele>543</ele>
        <time>2022-03-26T10:31:55+01:00</time>
      </trkpt>
      <trkpt lat="45.50182" lon="6.48934">
        <ele>549</ele>
        <time>2022-03-26T10:32:18+01:00</time>
      </trkpt>
      <trkpt lat="45.50162" lon="6.48913">
        <ele>554</ele>
        <time>2022-03-26T10:32:40+01:00</time>
      </trkpt>
      <trkpt lat="45.50142" lon="6.48892">
        <ele>547</ele>
        <time>2022-03-26T10:33:10+01:00</time>
      </trkpt>
      <trkpt lat="45.50123" lon="6.48873">
        <ele>548</ele>
        <time>2022-03-26T10:33:30+01:00</time>
      </trkpt>
      <trkpt lat="45.50105" lon="6.48853">
        <ele>551</ele>
        <time>2022-03-26T10:33:52+01:00</time>
      </trkpt>
      <trkpt lat="45.50089" lon="6.48828">
        <ele>555</ele>
        <time>2022-03-26T10:35:14+01:00</time>
      </trkpt>
      <trkpt lat="45.50067" lon="6.48818">
        <ele>560</ele>
        <time>2022-03-26T10:35:33+01:00</time>
      </trkpt>
      <trkpt lat="45.50049" lon="6.48797">
        <ele>568</ele>
        <time>2022-03-26T10:36:04+01:00</time>
      </trkpt>
      <trkpt lat="45.50028" lon="6.48776">
        <ele>571</ele>
        <time>2022-03-26T10:36:27+01:00</time>
      </trkpt>
      <trkpt lat="45.50009" lon="6.48756">
        <ele>569</ele>
        <time>2022-03-26T10:36:51+01:00</time>
      </trkpt>
      <trkpt lat="45.49992" lon="6.48731">
        <ele>566</ele>
        <time>2022-03-26T10:37:19+01:00</time>
      </trkpt>
      <trkpt lat="45.4997" lon="6.48718">
        <ele>571</ele>
        <time>2022-03-26T10:37:44+01:00</time>
      </trkpt>
      <trkpt lat="45.4996" lon="6.48686">
        <ele>567</ele>
        <time>2022-03-26T10:38:13+01:00</time>
      </trkpt>
      <trkpt lat="45.49962" lon="6.48653">
        <ele>573</ele>
        <time>2022-03-26T10:38:32+01:00</time>
      </trkpt>
      <trkpt lat="45.49979" lon="6.48628">
        <ele>572</ele>
        <time>2022-03-26T10:39:18+01:00</time>
      </trkpt>
      <trkpt lat="45.49958" lon="6.4861">
        <ele>572</ele>
        <time>2022-03-26T10:39:49+01:00</time>
      </trkpt>
      <trkpt lat="45.49956" lon="6.48577">
        <ele>584</ele>
        <time>2022-03-26T10:40:18+01:00</time>
      </trkpt>
      <trkpt lat="45.49954" lon="6.48544">
        <ele>599</ele>
        <time>2022-03-26T10:40:36+01:00</time>
      </trkpt>
      <trkpt lat="45.49955" lon="6.48509">
        <ele>597</ele>
        <time>2022-03-26T10:41:04+01:00</time>
      </trkpt>
      <trkpt lat="45.49966" lon="6.48479">
        <ele>592</ele>
        <time>2022-03-26T10:41:27+01:00</time>
      </trkpt>
      <trkpt lat="45.49973" lon="6.48447">
        <ele>598</ele>
        <time>2022-03-26T10:42:05+01:00</time>
      </trkpt>
      <trkpt lat="45.49981" lon="6.48416">
        <ele>597</ele>
        <time>2022-03-26T10:42:54+01:00</time>
      </trkpt>
      <trkpt lat="45.49987" lon="6.48384">
        <ele>604</ele>
        <time>2022-03-26T10:43:25+01:00</time>
      </trkpt>
      <trkpt lat="45.49964" lon="6.48383">
        <ele>600</ele>
        <time>2022-03-26T10:46:22+01:00</time>
      </trkpt>
      <trkpt lat="45.49953" lon="6.48353">
        <ele>585</ele>
        <time>2022-03-26T10:47:46+01:00</time>
      </trkpt>
      <trkpt lat="45.49942" lon="6.48326">
        <ele>588</ele>
        <time>2022-03-26T10:48:21+01:00</time>
      </trkpt>
      <trkpt lat="45.49941" lon="6.48292">
        <ele>589</ele>
        <time>2022-03-26T10:48:51+01:00</time>
      </trkpt>
      <trkpt lat="45.49935" lon="6.48257">
        <ele>592</ele>
        <time>2022-03-26T10:49:48+01:00</time>
      </trkpt>
      <trkpt lat="45.49943" lon="6.48225">
        <ele>600</ele>
        <time>2022-03-26T10:50:21+01:00</time>
      </trkpt>
      <trkpt lat="45.49946" lon="6.48192">
        <ele>604</ele>
        <time>2022-03-26T10:50:59+01:00</time>
      </trkpt>
      <trkpt lat="45.49924" lon="6.48191">
        <ele>602</ele>
        <time>2022-03-26T10:51:38+01:00</time>
      </trkpt>
      <trkpt lat="45.49907" lon="6.48167">
        <ele>596</ele>
        <time>2022-03-26T10:52:13+01:00</time>
      </trkpt>
      <trkpt lat="45.4989" lon="6.48143">
        <ele>598</ele>
        <time>2022-03-26T10:52:44+01:00</time>
      </trkpt>
      <trkpt lat="45.49873" lon="6.4812">
        <ele>601</ele>
        <time>2022-03-26T10:53:12+01:00</time>
      </trkpt>
      <trkpt lat="45.49854" lon="6.48097">
        <ele>604</ele>
        <time>2022-03-26T10:53:37+01:00</time>
      </trkpt>
      <trkpt lat="45.4984" lon="6.48071">
        <ele>607</ele>
        <time>2022-03-26T10:54:10+01:00</time>
      </trkpt>
      <trkpt lat="45.49822" lon="6.48051">
        <ele>610</ele>
        <time>2022-03-26T10:54:37+01:00</time>
      </trkpt>
      <trkpt lat="45.49806" lon="6.48022">
        <ele>607</ele>
        <time>2022-03-26T10:55:01+01:00</time>
      </trkpt>
      <trkpt lat="45.49793" lon="6.47992">
        <ele>624</ele>
        <time>2022-03-26T10:55:37+01:00</time>
      </trkpt>
      <trkpt lat="45.49781" lon="6.47965">
        <ele>626</ele>
        <time>2022-03-26T10:56:04+01:00</time>
      </trkpt>
      <trkpt lat="45.49762" lon="6.47947">
        <ele>628</ele>
        <time>2022-03-26T10:56:31+01:00</time>
      </trkpt>
      <trkpt lat="45.49779" lon="6.47923">
        <ele>637</ele>
        <time>2022-03-26T10:56:54+01:00</time>
      </trkpt>
      <trkpt lat="45.49799" lon="6.47908">
        <ele>645</ele>
        <time>2022-03-26T10:57:26+01:00</time>
      </trkpt>
      <trkpt lat="45.4978" lon="6.4789">
        <ele>646</ele>
        <time>2022-03-26T10:58:03+01:00</time>
      </trkpt>
      <trkpt lat="45.49757" lon="6.47878">
        <ele>644</ele>
        <time>2022-03-26T10:58:31+01:00</time>
      </trkpt>
      <trkpt lat="45.49735" lon="6.47872">
        <ele>639</ele>
        <time>2022-03-26T10:58:56+01:00</time>
      </trkpt>
      <trkpt lat="45.49718" lon="6.47849">
        <ele>641</ele>
        <time>2022-03-26T11:00:36+01:00</time>
      </trkpt>
      <trkpt lat="45.49735" lon="6.47873">
        <ele>644</ele>
        <time>2022-03-26T11:06:32+01:00</time>
      </trkpt>
      <trkpt lat="45.49776" lon="6.47926">
        <ele>658</ele>
        <time>2022-03-26T11:07:05+01:00</time>
      </trkpt>
      <trkpt lat="45.49773" lon="6.47959">
        <ele>663</ele>
        <time>2022-03-26T11:07:14+01:00</time>
      </trkpt>
      <trkpt lat="45.49746" lon="6.47965">
        <ele>665</ele>
        <time>2022-03-26T11:07:21+01:00</time>
      </trkpt>
      <trkpt lat="45.4974" lon="6.4793">
        <ele>666</ele>
        <time>2022-03-26T11:07:32+01:00</time>
      </trkpt>
      <trkpt lat="45.49739" lon="6.47897">
        <ele>665</ele>
        <time>2022-03-26T11:07:46+01:00</time>
      </trkpt>
      <trkpt lat="45.4974" lon="6.47861">
        <ele>669</ele>
        <time>2022-03-26T11:07:57+01:00</time>
      </trkpt>
      <trkpt lat="45.49762" lon="6.47875">
        <ele>659</ele>
        <time>2022-03-26T11:08:34+01:00</time>
      </trkpt>
      <trkpt lat="45.49784" lon="6.47884">
        <ele>657</ele>
        <time>2022-03-26T11:09:20+01:00</time>
      </trkpt>
      <trkpt lat="45.49802" lon="6.47905">
        <ele>649</ele>
        <time>2022-03-26T11:10:10+01:00</time>
      </trkpt>
      <trkpt lat="45.49786" lon="6.47932">
        <ele>650</ele>
        <time>2022-03-26T11:10:57+01:00</time>
      </trkpt>
      <trkpt lat="45.49766" lon="6.47949">
        <ele>638</ele>
        <time>2022-03-26T11:11:50+01:00</time>
      </trkpt>
      <trkpt lat="45.49788" lon="6.47961">
        <ele>643</ele>
        <time>2022-03-26T11:12:18+01:00</time>
      </trkpt>
      <trkpt lat="45.49802" lon="6.47988">
        <ele>631</ele>
        <time>2022-03-26T11:12:47+01:00</time>
      </trkpt>
      <trkpt lat="45.49814" lon="6.48017">
        <ele>630</ele>
        <time>2022-03-26T11:13:21+01:00</time>
      </trkpt>
      <trkpt lat="45.49833" lon="6.48039">
        <ele>626</ele>
        <time>2022-03-26T11:13:56+01:00</time>
      </trkpt>
      <trkpt lat="45.49857" lon="6.48037">
        <ele>624</ele>
        <time>2022-03-26T11:14:44+01:00</time>
      </trkpt>
      <trkpt lat="45.4988" lon="6.48031">
        <ele>634</ele>
        <time>2022-03-26T11:15:21+01:00</time>
      </trkpt>
      <trkpt lat="45.49904" lon="6.48037">
        <ele>637</ele>
        <time>2022-03-26T11:15:54+01:00</time>
      </trkpt>
      <trkpt lat="45.49927" lon="6.48029">
        <ele>641</ele>
        <time>2022-03-26T11:16:33+01:00</time>
      </trkpt>
      <trkpt lat="45.4995" lon="6.48029">
        <ele>647</ele>
        <time>2022-03-26T11:17:15+01:00</time>
      </trkpt>
      <trkpt lat="45.49956" lon="6.48061">
        <ele>650</ele>
        <time>2022-03-26T11:19:05+01:00</time>
      </trkpt>
      <trkpt lat="45.49975" lon="6.48085">
        <ele>652</ele>
        <time>2022-03-26T11:19:33+01:00</time>
      </trkpt>
      <trkpt lat="45.49991" lon="6.48108">
        <ele>654</ele>
        <time>2022-03-26T11:20:01+01:00</time>
      </trkpt>
      <trkpt lat="45.50004" lon="6.48138">
        <ele>657</ele>
        <time>2022-03-26T11:20:29+01:00</time>
      </trkpt>
      <trkpt lat="45.49999" lon="6.48169">
        <ele>659</ele>
        <time>2022-03-26T11:21:04+01:00</time>
      </trkpt>
      <trkpt lat="45.49996" lon="6.48205">
        <ele>662</ele>
        <time>2022-03-26T11:21:38+01:00</time>
      </trkpt>
      <trkpt lat="45.50007" lon="6.48233">
        <ele>670</ele>
        <time>2022-03-26T11:22:13+01:00</time>
      </trkpt>
      <trkpt lat="45.50028" lon="6.48251">
        <ele>677</ele>
        <time>2022-03-26T11:22:43+01:00</time>
      </trkpt>
      <trkpt lat="45.5004" lon="6.48278">
        <ele>682</ele>
        <time>2022-03-26T11:23:08+01:00</time>
      </trkpt>
      <trkpt lat="45.50061" lon="6.48294">
        <ele>656</ele>
        <time>2022-03-26T11:23:38+01:00</time>
      </trkpt>
      <trkpt lat="45.50079" lon="6.48314">
        <ele>656</ele>
        <time>2022-03-26T11:24:33+01:00</time>
      </trkpt>
      <trkpt lat="45.50098" lon="6.48332">
        <ele>674</ele>
        <time>2022-03-26T11:27:14+01:00</time>
      </trkpt>
      <trkpt lat="45.5012" lon="6.48346">
        <ele>673</ele>
        <time>2022-03-26T11:27:47+01:00</time>
      </trkpt>
      <trkpt lat="45.50143" lon="6.48353">
        <ele>673</ele>
        <time>2022-03-26T11:28:33+01:00</time>
      </trkpt>
      <trkpt lat="45.50166" lon="6.48358">
        <ele>669</ele>
        <time>2022-03-26T11:29:51+01:00</time>
      </trkpt>
      <trkpt lat="45.50183" lon="6.48379">
        <ele>667</ele>
        <time>2022-03-26T11:30:23+01:00</time>
      </trkpt>
      <trkpt lat="45.50201" lon="6.48404">
        <ele>659</ele>
        <time>2022-03-26T11:32:04+01:00</time>
      </trkpt>
      <trkpt lat="45.50219" lon="6.48424">
        <ele>657</ele>
        <time>2022-03-26T11:32:47+01:00</time>
      </trkpt>
      <trkpt lat="45.50231" lon="6.48452">
        <ele>660</ele>
        <time>2022-03-26T11:33:59+01:00</time>
      </trkpt>
      <trkpt lat="45.50241" lon="6.48481">
        <ele>651</ele>
        <time>2022-03-26T11:34:29+01:00</time>
      </trkpt>
      <trkpt lat="45.50263" lon="6.48493">
        <ele>645</ele>
        <time>2022-03-26T11:35:11+01:00</time>
      </trkpt>
      <trkpt lat="45.50287" lon="6.48487">
        <ele>648</ele>
        <time>2022-03-26T11:35:36+01:00</time>
      </trkpt>
      <trkpt lat="45.50309" lon="6.48495">
        <ele>643</ele>
        <time>2022-03-26T11:37:01+01:00</time>
      </trkpt>
      <trkpt lat="45.50334" lon="6.48486">
        <ele>645</ele>
        <time>2022-03-26T11:37:24+01:00</time>
      </trkpt>
      <trkpt lat="45.50357" lon="6.4848">
        <ele>643</ele>
        <time>2022-03-26T11:39:07+01:00</time>
      </trkpt>
      <trkpt lat="45.5038" lon="6.48476">
        <ele>643</ele>
        <time>2022-03-26T11:39:31+01:00</time>
      </trkpt>
      <trkpt lat="45.50401" lon="6.48493">
        <ele>656</ele>
        <time>2022-03-26T11:39:55+01:00</time>
      </trkpt>
      <trkpt lat="45.50425" lon="6.48489">
        <ele>656</ele>
        <time>2022-03-26T11:40:34+01:00</time>
      </trkpt>
      <trkpt lat="45.50446" lon="6.48475">
        <ele>656</ele>
        <time>2022-03-26T11:40:59+01:00</time>
      </trkpt>
      <trkpt lat="45.50466" lon="6.48459">
        <ele>656</ele>
        <time>2022-03-26T11:42:22+01:00</time>
      </trkpt>
      <trkpt lat="45.50489" lon="6.48457">
        <ele>652</ele>
        <time>2022-03-26T11:42:59+01:00</time>
      </trkpt>
      <trkpt lat="45.50507" lon="6.48437">
        <ele>660</ele>
        <time>2022-03-26T11:44:44+01:00</time>
      </trkpt>
      <trkpt lat="45.50526" lon="6.48456">
        <ele>643</ele>
        <time>2022-03-26T11:46:35+01:00</time>
      </trkpt>
      <trkpt lat="45.50519" lon="6.48489">
        <ele>638</ele>
        <time>2022-03-26T11:59:08+01:00</time>
      </trkpt>
      <trkpt lat="45.5054" lon="6.48504">
        <ele>660</ele>
        <time>2022-03-26T12:41:10+01:00</time>
      </trkpt>
      <trkpt lat="45.50552" lon="6.48532">
        <ele>626</ele>
        <time>2022-03-26T12:41:41+01:00</time>
      </trkpt>
      <trkpt lat="45.50564" lon="6.4856">
        <ele>624</ele>
        <time>2022-03-26T12:42:07+01:00</time>
      </trkpt>
      <trkpt lat="45.50587" lon="6.4857">
        <ele>625</ele>
        <time>2022-03-26T12:42:42+01:00</time>
      </trkpt>
      <trkpt lat="45.50613" lon="6.48563">
        <ele>643</ele>
        <time>2022-03-26T12:43:16+01:00</time>
      </trkpt>
      <trkpt lat="45.50638" lon="6.48561">
        <ele>626</ele>
        <time>2022-03-26T12:43:52+01:00</time>
      </trkpt>
      <trkpt lat="45.50663" lon="6.48558">
        <ele>622</ele>
        <time>2022-03-26T12:44:15+01:00</time>
      </trkpt>
      <trkpt lat="45.50685" lon="6.48546">
        <ele>620</ele>
        <time>2022-03-26T12:44:41+01:00</time>
      </trkpt>
      <trkpt lat="45.50709" lon="6.48553">
        <ele>623</ele>
        <time>2022-03-26T12:45:00+01:00</time>
      </trkpt>
      <trkpt lat="45.50732" lon="6.48558">
        <ele>623</ele>
        <time>2022-03-26T12:45:25+01:00</time>
      </trkpt>
      <trkpt lat="45.50755" lon="6.48548">
        <ele>620</ele>
        <time>2022-03-26T12:45:53+01:00</time>
      </trkpt>
      <trkpt lat="45.50778" lon="6.48555">
        <ele>616</ele>
        <time>2022-03-26T12:46:19+01:00</time>
      </trkpt>
      <trkpt lat="45.508" lon="6.48561">
        <ele>614</ele>
        <time>2022-03-26T12:46:44+01:00</time>
      </trkpt>
      <trkpt lat="45.50824" lon="6.48559">
        <ele>616</ele>
        <time>2022-03-26T12:47:07+01:00</time>
      </trkpt>
      <trkpt lat="45.50849" lon="6.48557">
        <ele>611</ele>
        <time>2022-03-26T12:47:33+01:00</time>
      </trkpt>
      <trkpt lat="45.50872" lon="6.48553">
        <ele>607</ele>
        <time>2022-03-26T12:47:56+01:00</time>
      </trkpt>
      <trkpt lat="45.50895" lon="6.48551">
        <ele>605</ele>
        <time>2022-03-26T12:48:22+01:00</time>
      </trkpt>
      <trkpt lat="45.5092" lon="6.48545">
        <ele>601</ele>
        <time>2022-03-26T12:48:51+01:00</time>
      </trkpt>
      <trkpt lat="45.50941" lon="6.48529">
        <ele>606</ele>
        <time>2022-03-26T12:49:14+01:00</time>
      </trkpt>
      <trkpt lat="45.50963" lon="6.48537">
        <ele>610</ele>
        <time>2022-03-26T12:49:34+01:00</time>
      </trkpt>
      <trkpt lat="45.50987" lon="6.48538">
        <ele>611</ele>
        <time>2022-03-26T12:49:57+01:00</time>
      </trkpt>
      <trkpt lat="45.5101" lon="6.48542">
        <ele>608</ele>
        <time>2022-03-26T12:50:28+01:00</time>
      </trkpt>
      <trkpt lat="45.51031" lon="6.48527">
        <ele>606</ele>
        <time>2022-03-26T12:50:53+01:00</time>
      </trkpt>
      <trkpt lat="45.51056" lon="6.48528">
        <ele>604</ele>
        <time>2022-03-26T12:51:15+01:00</time>
      </trkpt>
      <trkpt lat="45.51079" lon="6.4853">
        <ele>598</ele>
        <time>2022-03-26T12:51:33+01:00</time>
      </trkpt>
      <trkpt lat="45.51104" lon="6.48527">
        <ele>592</ele>
        <time>2022-03-26T12:52:04+01:00</time>
      </trkpt>
      <trkpt lat="45.51127" lon="6.48532">
        <ele>594</ele>
        <time>2022-03-26T12:52:20+01:00</time>
      </trkpt>
      <trkpt lat="45.51149" lon="6.48539">
        <ele>602</ele>
        <time>2022-03-26T12:52:41+01:00</time>
      </trkpt>
      <trkpt lat="45.51156" lon="6.48507">
        <ele>596</ele>
        <time>2022-03-26T12:53:01+01:00</time>
      </trkpt>
      <trkpt lat="45.51167" lon="6.48477">
        <ele>595</ele>
        <time>2022-03-26T12:53:25+01:00</time>
      </trkpt>
      <trkpt lat="45.5118" lon="6.48448">
        <ele>589</ele>
        <time>2022-03-26T12:53:50+01:00</time>
      </trkpt>
      <trkpt lat="45.51204" lon="6.48429">
        <ele>588</ele>
        <time>2022-03-26T12:54:19+01:00</time>
      </trkpt>
      <trkpt lat="45.5122" lon="6.48407">
        <ele>587</ele>
        <time>2022-03-26T12:54:37+01:00</time>
      </trkpt>
      <trkpt lat="45.51237" lon="6.48382">
        <ele>597</ele>
        <time>2022-03-26T12:55:00+01:00</time>
      </trkpt>
      <trkpt lat="45.51243" lon="6.48351">
        <ele>593</ele>
        <time>2022-03-26T12:55:21+01:00</time>
      </trkpt>
      <trkpt lat="45.51252" lon="6.48321">
        <ele>590</ele>
        <time>2022-03-26T12:55:43+01:00</time>
      </trkpt>
      <trkpt lat="45.51274" lon="6.48314">
        <ele>593</ele>
        <time>2022-03-26T12:58:09+01:00</time>
      </trkpt>
      <trkpt lat="45.51293" lon="6.48295">
        <ele>594</ele>
        <time>2022-03-26T12:58:33+01:00</time>
      </trkpt>
      <trkpt lat="45.51311" lon="6.48275">
        <ele>594</ele>
        <time>2022-03-26T12:59:00+01:00</time>
      </trkpt>
      <trkpt lat="45.51314" lon="6.48243">
        <ele>585</ele>
        <time>2022-03-26T12:59:25+01:00</time>
      </trkpt>
      <trkpt lat="45.51324" lon="6.48213">
        <ele>587</ele>
        <time>2022-03-26T13:00:08+01:00</time>
      </trkpt>
      <trkpt lat="45.51345" lon="6.48197">
        <ele>585</ele>
        <time>2022-03-26T13:00:32+01:00</time>
      </trkpt>
      <trkpt lat="45.51368" lon="6.48191">
        <ele>582</ele>
        <time>2022-03-26T13:01:02+01:00</time>
      </trkpt>
      <trkpt lat="45.5139" lon="6.48177">
        <ele>586</ele>
        <time>2022-03-26T13:01:28+01:00</time>
      </trkpt>
      <trkpt lat="45.51406" lon="6.4815">
        <ele>578</ele>
        <time>2022-03-26T13:01:56+01:00</time>
      </trkpt>
      <trkpt lat="45.51421" lon="6.48124">
        <ele>575</ele>
        <time>2022-03-26T13:02:16+01:00</time>
      </trkpt>
      <trkpt lat="45.51429" lon="6.48093">
        <ele>577</ele>
        <time>2022-03-26T13:02:42+01:00</time>
      </trkpt>
      <trkpt lat="45.51423" lon="6.48058">
        <ele>572</ele>
        <time>2022-03-26T13:03:09+01:00</time>
      </trkpt>
      <trkpt lat="45.51424" lon="6.48025">
        <ele>574</ele>
        <time>2022-03-26T13:10:46+01:00</time>
      </trkpt>
      <trkpt lat="45.51432" lon="6.47992">
        <ele>569</ele>
        <time>2022-03-26T13:11:07+01:00</time>
      </trkpt>
      <trkpt lat="45.51454" lon="6.47975">
        <ele>567</ele>
        <time>2022-03-26T13:11:34+01:00</time>
      </trkpt>
      <trkpt lat="45.51477" lon="6.47974">
        <ele>570</ele>
        <time>2022-03-26T13:11:53+01:00</time>
      </trkpt>
      <trkpt lat="45.51501" lon="6.47982">
        <ele>573</ele>
        <time>2022-03-26T13:12:11+01:00</time>
      </trkpt>
      <trkpt lat="45.51524" lon="6.4798">
        <ele>577</ele>
        <time>2022-03-26T13:12:42+01:00</time>
      </trkpt>
      <trkpt lat="45.51546" lon="6.47987">
        <ele>578</ele>
        <time>2022-03-26T13:13:02+01:00</time>
      </trkpt>
      <trkpt lat="45.51571" lon="6.4799">
        <ele>574</ele>
        <time>2022-03-26T13:13:29+01:00</time>
      </trkpt>
      <trkpt lat="45.51593" lon="6.47995">
        <ele>573</ele>
        <time>2022-03-26T13:13:53+01:00</time>
      </trkpt>
      <trkpt lat="45.51616" lon="6.48002">
        <ele>578</ele>
        <time>2022-03-26T13:14:14+01:00</time>
      </trkpt>
      <trkpt lat="45.51639" lon="6.48015">
        <ele>584</ele>
        <time>2022-03-26T13:14:36+01:00</time>
      </trkpt>
      <trkpt lat="45.51661" lon="6.48025">
        <ele>588</ele>
        <time>2022-03-26T13:14:59+01:00</time>
      </trkpt>
      <trkpt lat="45.51684" lon="6.48022">
        <ele>585</ele>
        <time>2022-03-26T13:15:27+01:00</time>
      </trkpt>
      <trkpt lat="45.51707" lon="6.48022">
        <ele>587</ele>
        <time>2022-03-26T13:15:49+01:00</time>
      </trkpt>
      <trkpt lat="45.51729" lon="6.48035">
        <ele>587</ele>
        <time>2022-03-26T13:16:09+01:00</time>
      </trkpt>
      <trkpt lat="45.51752" lon="6.48045">
        <ele>587</ele>
        <time>2022-03-26T13:16:35+01:00</time>
      </trkpt>
      <trkpt lat="45.51775" lon="6.48046">
        <ele>582</ele>
        <time>2022-03-26T13:17:00+01:00</time>
      </trkpt>
      <trkpt lat="45.51796" lon="6.48036">
        <ele>578</ele>
        <time>2022-03-26T13:17:23+01:00</time>
      </trkpt>
      <trkpt lat="45.51819" lon="6.48035">
        <ele>576</ele>
        <time>2022-03-26T13:17:46+01:00</time>
      </trkpt>
      <trkpt lat="45.51844" lon="6.48037">
        <ele>574</ele>
        <time>2022-03-26T13:18:08+01:00</time>
      </trkpt>
      <trkpt lat="45.51867" lon="6.48043">
        <ele>572</ele>
        <time>2022-03-26T13:18:30+01:00</time>
      </trkpt>
      <trkpt lat="45.51891" lon="6.48048">
        <ele>566</ele>
        <time>2022-03-26T13:18:51+01:00</time>
      </trkpt>
      <trkpt lat="45.51913" lon="6.48063">
        <ele>568</ele>
        <time>2022-03-26T13:19:12+01:00</time>
      </trkpt>
      <trkpt lat="45.51932" lon="6.48081">
        <ele>566</ele>
        <time>2022-03-26T13:19:31+01:00</time>
      </trkpt>
      <trkpt lat="45.51947" lon="6.4811">
        <ele>568</ele>
        <time>2022-03-26T13:19:52+01:00</time>
      </trkpt>
      <trkpt lat="45.51961" lon="6.48137">
        <ele>568</ele>
        <time>2022-03-26T13:20:14+01:00</time>
      </trkpt>
      <trkpt lat="45.51975" lon="6.48167">
        <ele>563</ele>
        <time>2022-03-26T13:20:37+01:00</time>
      </trkpt>
      <trkpt lat="45.51953" lon="6.48176">
        <ele>559</ele>
        <time>2022-03-26T13:21:20+01:00</time>
      </trkpt>
      <trkpt lat="45.51937" lon="6.48149">
        <ele>558</ele>
        <time>2022-03-26T13:21:38+01:00</time>
      </trkpt>
      <trkpt lat="45.51916" lon="6.4813">
        <ele>553</ele>
        <time>2022-03-26T13:22:01+01:00</time>
      </trkpt>
      <trkpt lat="45.51898" lon="6.48111">
        <ele>554</ele>
        <time>2022-03-26T13:22:19+01:00</time>
      </trkpt>
      <trkpt lat="45.51913" lon="6.48137">
        <ele>547</ele>
        <time>2022-03-26T13:22:42+01:00</time>
      </trkpt>
      <trkpt lat="45.51928" lon="6.48166">
        <ele>549</ele>
        <time>2022-03-26T13:23:01+01:00</time>
      </trkpt>
      <trkpt lat="45.51905" lon="6.48154">
        <ele>493</ele>
        <time>2022-03-26T13:23:32+01:00</time>
      </trkpt>
      <trkpt lat="45.51885" lon="6.48135">
        <ele>493</ele>
        <time>2022-03-26T13:23:51+01:00</time>
      </trkpt>
      <trkpt lat="45.51867" lon="6.48156">
        <ele>493</ele>
        <time>2022-03-26T13:24:55+01:00</time>
      </trkpt>
      <trkpt lat="45.51845" lon="6.48169">
        <ele>521</ele>
        <time>2022-03-26T13:25:33+01:00</time>
      </trkpt>
      <trkpt lat="45.51822" lon="6.48167">
        <ele>516</ele>
        <time>2022-03-26T13:25:54+01:00</time>
      </trkpt>
      <trkpt lat="45.51843" lon="6.48184">
        <ele>512</ele>
        <time>2022-03-26T13:26:50+01:00</time>
      </trkpt>
      <trkpt lat="45.51861" lon="6.48204">
        <ele>508</ele>
        <time>2022-03-26T13:27:10+01:00</time>
      </trkpt>
      <trkpt lat="45.5184" lon="6.4822">
        <ele>511</ele>
        <time>2022-03-26T13:27:59+01:00</time>
      </trkpt>
      <trkpt lat="45.51817" lon="6.4823">
        <ele>498</ele>
        <time>2022-03-26T13:30:01+01:00</time>
      </trkpt>
      <trkpt lat="45.51819" lon="6.48262">
        <ele>521</ele>
        <time>2022-03-26T13:30:26+01:00</time>
      </trkpt>
      <trkpt lat="45.5181" lon="6.48292">
        <ele>496</ele>
        <time>2022-03-26T13:31:34+01:00</time>
      </trkpt>
      <trkpt lat="45.51787" lon="6.48302">
        <ele>496</ele>
        <time>2022-03-26T13:31:53+01:00</time>
      </trkpt>
      <trkpt lat="45.51786" lon="6.48336">
        <ele>494</ele>
        <time>2022-03-26T13:32:54+01:00</time>
      </trkpt>
      <trkpt lat="45.51801" lon="6.48361">
        <ele>493</ele>
        <time>2022-03-26T13:33:12+01:00</time>
      </trkpt>
      <trkpt lat="45.51819" lon="6.48387">
        <ele>494</ele>
        <time>2022-03-26T13:33:28+01:00</time>
      </trkpt>
      <trkpt lat="45.51837" lon="6.48409">
        <ele>494</ele>
        <time>2022-03-26T13:33:44+01:00</time>
      </trkpt>
      <trkpt lat="45.51843" lon="6.48443">
        <ele>494</ele>
        <time>2022-03-26T13:34:01+01:00</time>
      </trkpt>
      <trkpt lat="45.51861" lon="6.48424">
        <ele>495</ele>
        <time>2022-03-26T13:36:21+01:00</time>
      </trkpt>
      <trkpt lat="45.51896" lon="6.48414">
        <ele>495</ele>
        <time>2022-03-26T13:37:04+01:00</time>
      </trkpt>
      <trkpt lat="45.51874" lon="6.48427">
        <ele>498</ele>
        <time>2022-03-26T13:37:12+01:00</time>
      </trkpt>
      <trkpt lat="45.51851" lon="6.48431">
        <ele>499</ele>
        <time>2022-03-26T13:37:38+01:00</time>
      </trkpt>
      <trkpt lat="45.51833" lon="6.48455">
        <ele>503</ele>
        <time>2022-03-26T13:39:39+01:00</time>
      </trkpt>
      <trkpt lat="45.51826" lon="6.48489">
        <ele>503</ele>
        <time>2022-03-26T13:40:13+01:00</time>
      </trkpt>
    </trkseg>
  </trk>
</gpx>